Flight Track Log - Related Links

Times and Time Zones

All times are in EDT time to prevent confusion due to time zone crossing. See the UAL407 flight status page for this flight to view local times or setup timezone preferences in your user account.

Time Position Orientation Groundspeed Altitude Reporting Facility
EDT Latitude Longitude Course Direction KTS MPH feet Rate Location/Type
Thu 11:28:56 PM 42.0000 -87.9333 270° West 153 176 1,700  Level Chicago TRACON
Thu 11:29:56 PM 42.0333 -87.9667 323° Northwest 208 239 2,900 1,400 Climbing Chicago TRACON
Thu 11:30:56 PM 42.0667 -88.0500 298° West 274 315 4,500 2,513 Climbing Chicago TRACON
Thu 11:31:00 PM 41.9667 -88.3535 270° West  Level FlightAware Approximate
Thu 11:32:00 PM 41.9667 -88.5047 270° West  Level FlightAware Approximate
Thu 11:32:36 PM 42.0789 -88.2067 276° West 279 321 9,600  Level Chicago Center
Thu 11:33:00 PM 41.9668 -88.6558 270° West  Level FlightAware Approximate
Thu 11:33:37 PM 42.0803 -88.3183 271° West 295 339 12,400  Level Chicago Center
Thu 11:34:00 PM 41.9667 -88.8070 270° West  Level FlightAware Approximate
Thu 11:34:37 PM 42.0833 -88.4383 272° West 320 368 14,900  Level Chicago Center
Thu 11:35:38 PM 42.0892 -88.5922 273° West 343 395 18,700 3,197 Climbing Chicago Center
Thu 11:36:39 PM 42.0950 -88.7253 273° West 356 410 21,400 2,164 Climbing Chicago Center
Thu 11:37:40 PM 42.1014 -88.8550 274° West 367 422 23,100 934 Climbing Chicago Center
Thu 11:38:41 PM 42.1100 -89.0125 274° West 415 478 23,300 1,574 Climbing Chicago Center
Thu 11:39:42 PM 42.1203 -89.1789 275° West 439 505 26,300 2,361 Climbing Chicago Center
Thu 11:40:43 PM 42.1589 -89.3281 289° West 418 481 28,100 1,328 Climbing Chicago Center
Thu 11:41:44 PM 42.1967 -89.4806 289° West 427 491 29,000 836 Climbing Chicago Center
Thu 11:42:45 PM 42.2381 -89.6347 290° West 436 502 29,800 942 Climbing Chicago Center
Thu 11:43:45 PM 42.2861 -89.8175 290° West 440 506 30,900 1,140 Climbing Chicago Center
Thu 11:44:46 PM 42.3231 -89.9600 289° West 441 507 32,100 836 Climbing Chicago Center
Thu 11:45:47 PM 42.3608 -90.1128 289° West 431 496 32,600 590 Climbing Chicago Center
Thu 11:46:48 PM 42.4011 -90.2731 289° West 451 519 33,300 787 Climbing Chicago Center
Thu 11:47:49 PM 42.4422 -90.4303 290° West 448 516 34,200 885 Climbing Chicago Center
Thu 11:48:50 PM 42.4819 -90.5892 289° West 448 516 35,100 893 Climbing Chicago Center
Thu 11:49:50 PM 42.5228 -90.7469 289° West 448 516 36,000 496 Climbing Chicago Center
Thu 11:50:51 PM 42.5611 -90.9008 289° West 437 503 36,100  Climbing Chicago Center
Thu 11:52:33 PM 42.6272 -91.1806 288° West 439 505 36,000 -49 Descending Minneapolis Center
Thu 11:52:53 PM 42.6439 -91.2428 290° West 436 502 36,000 74 Level Chicago Center
Thu 11:53:54 PM 42.6819 -91.4000 288° West 438 504 36,100 59 Climbing Chicago Center
Thu 11:54:34 PM 42.7042 -91.4953 288° West 440 506 36,100  Level Minneapolis Center
Thu 11:55:35 PM 42.7442 -91.6583 289° West 441 507 36,100  Level Minneapolis Center
Thu 11:56:36 PM 42.7836 -91.8267 288° West 445 512 36,100  Level Minneapolis Center
Thu 11:57:37 PM 42.8208 -91.9858 288° West 445 512 36,100  Level Minneapolis Center
Thu 11:58:38 PM 42.8583 -92.1469 288° West 447 514 36,100  Level Minneapolis Center
Thu 11:59:41 PM 42.8950 -92.3072 287° West 446 513 36,100 -49 Level Minneapolis Center
Fri 12:00:41 AM 42.9322 -92.4658 288° West 443 510 36,000  Descending Minneapolis Center
Fri 12:01:42 AM 42.9686 -92.6250 287° West 443 510 36,100 49 Climbing Minneapolis Center
Fri 12:02:43 AM 43.0122 -92.8172 287° West 445 512 36,100 -49 Level Minneapolis Center
Fri 12:03:44 AM 43.0486 -92.9753 288° West 441 507 36,000  Descending Minneapolis Center
Fri 12:04:45 AM 43.0833 -93.1333 287° West 438 504 36,100  Climbing Minneapolis Center
Fri 12:05:45 AM 43.1192 -93.2889 288° West 433 498 36,000 -50 Descending Minneapolis Center
Fri 12:06:46 AM 43.1464 -93.4147 287° West 433 498 36,000  Level Minneapolis Center
Fri 12:07:47 AM 43.1814 -93.5728 287° West 436 502 36,000 50 Level Minneapolis Center
Fri 12:08:47 AM 43.2233 -93.7639 287° West 440 506 36,100 50 Climbing Minneapolis Center
Fri 12:09:48 AM 43.2581 -93.9222 287° West 437 503 36,100  Level Minneapolis Center
Fri 12:10:49 AM 43.2928 -94.0794 287° West 436 502 36,100 -50 Level Minneapolis Center
Fri 12:11:49 AM 43.3314 -94.2661 286° West 434 499 36,000 -50 Descending Minneapolis Center
Fri 12:12:50 AM 43.3597 -94.3953 287° West 430 495 36,000 49 Level Minneapolis Center
Fri 12:13:51 AM 43.4000 -94.5903 286° West 440 506 36,100 50 Climbing Minneapolis Center
Fri 12:14:51 AM 43.4344 -94.7531 286° West 443 510 36,100  Level Minneapolis Center
Fri 12:15:52 AM 43.4672 -94.9142 286° West 441 507 36,100 -49 Level Minneapolis Center
Fri 12:16:53 AM 43.5006 -95.0739 286° West 437 503 36,000 -50 Descending Minneapolis Center
Fri 12:17:53 AM 43.5331 -95.2350 286° West 437 503 36,000 50 Level Minneapolis Center
Fri 12:18:54 AM 43.5661 -95.3969 286° West 438 504 36,100 50 Climbing Minneapolis Center
Fri 12:19:54 AM 43.5983 -95.5592 285° West 439 505 36,100  Level Minneapolis Center
Fri 12:20:55 AM 43.6311 -95.7214 286° West 438 504 36,100 -49 Level Minneapolis Center
Fri 12:21:56 AM 43.6619 -95.8833 285° West 437 503 36,000 -50 Descending Minneapolis Center
Fri 12:22:56 AM 43.6936 -96.0439 285° West 433 498 36,000  Level Minneapolis Center
Fri 12:23:57 AM 43.7250 -96.2058 285° West 434 499 36,000  Level Minneapolis Center
Fri 12:24:58 AM 43.7561 -96.3700 285° West 438 504 36,000 50 Level Minneapolis Center
Fri 12:25:58 AM 43.7875 -96.5339 285° West 439 505 36,100 50 Climbing Minneapolis Center
Fri 12:26:59 AM 43.8189 -96.7003 285° West 444 511 36,100  Level Minneapolis Center
Fri 12:27:59 AM 43.8503 -96.8672 285° West 447 514 36,100 -50 Level Minneapolis Center
Fri 12:29:00 AM 43.8803 -97.0344 284° West 447 514 36,000  Descending Minneapolis Center
Fri 12:30:00 AM 43.9117 -97.2019 285° West 448 516 36,100 50 Climbing Minneapolis Center
Fri 12:31:01 AM 43.9422 -97.3703 284° West 450 518 36,100  Level Minneapolis Center
Fri 12:32:01 AM 43.9728 -97.5361 284° West 445 512 36,100 -50 Level Minneapolis Center
Fri 12:33:02 AM 44.0019 -97.7028 284° West 444 511 36,000 -50 Descending Minneapolis Center
Fri 12:34:02 AM 44.0319 -97.8683 284° West 443 510 36,000 50 Level Minneapolis Center
Fri 12:35:03 AM 44.0611 -98.0381 284° West 450 518 36,100 50 Climbing Minneapolis Center
Fri 12:36:03 AM 44.0911 -98.2072 284° West 450 518 36,100  Level Minneapolis Center
Fri 12:37:04 AM 44.1197 -98.3778 283° West 452 520 36,100  Level Minneapolis Center
Fri 12:38:04 AM 44.1478 -98.5461 283° West 450 518 36,100  Level Minneapolis Center
Fri 12:39:05 AM 44.1761 -98.7075 284° West 447 514 36,100 -45 Level Minneapolis Center
Fri 12:40:17 AM 44.2044 -98.8744 283° West 443 510 36,000 -45 Descending Minneapolis Center
Fri 12:41:18 AM 44.2442 -99.1097 283° West 444 511 36,000 50 Level Minneapolis Center
Fri 12:42:18 AM 44.2708 -99.2806 282° West 448 516 36,100 50 Climbing Minneapolis Center
Fri 12:43:19 AM 44.2981 -99.4494 283° West 447 514 36,100  Level Minneapolis Center
Fri 12:44:19 AM 44.3247 -99.6203 282° West 448 516 36,100  Level Minneapolis Center
Fri 12:45:20 AM 44.3514 -99.7897 282° West 447 514 36,100  Level Minneapolis Center
Fri 12:46:20 AM 44.3781 -99.9578 283° West 445 512 36,100 -50 Level Minneapolis Center
Fri 12:47:21 AM 44.4039 -100.1242 282° West 441 507 36,000  Descending Minneapolis Center
Fri 12:48:21 AM 44.4294 -100.2911 282° West 438 504 36,100 50 Climbing Minneapolis Center
Fri 12:49:21 AM 44.4547 -100.4575 282° West 436 502 36,100  Level Minneapolis Center
Fri 12:50:22 AM 44.4794 -100.6244 282° West 436 502 36,100 -50 Level Minneapolis Center
Fri 12:51:22 AM 44.5044 -100.7925 282° West 438 504 36,000  Descending Minneapolis Center
Fri 12:52:22 AM 44.5292 -100.9592 282° West 437 503 36,100 50 Climbing Minneapolis Center
Fri 12:53:23 AM 44.5533 -101.1261 282° West 437 503 36,100  Level Minneapolis Center
Fri 12:54:23 AM 44.5778 -101.2925 282° West 436 502 36,100 -50 Level Minneapolis Center
Fri 12:55:24 AM 44.6019 -101.4592 282° West 436 502 36,000  Descending Minneapolis Center
Fri 12:56:24 AM 44.6250 -101.6253 281° West 435 501 36,100  Climbing Minneapolis Center
Fri 12:57:24 AM 44.6489 -101.7925 281° West 435 501 36,000 -50 Descending Minneapolis Center
Fri 12:58:24 AM 44.6733 -101.9608 282° West 437 503 36,000 50 Level Minneapolis Center
Fri 12:59:25 AM 44.6958 -102.1289 281° West 438 504 36,100 50 Climbing Minneapolis Center
Fri 01:00:23 AM 44.7122 -102.2611 280° West 436 502 36,100 -51 Level Denver Center
Fri 01:01:23 AM 44.7347 -102.4283 281° West 436 502 36,000  Descending Denver Center
Fri 01:02:24 AM 44.7611 -102.6308 280° West 438 504 36,100 49 Climbing Denver Center
Fri 01:03:25 AM 44.7828 -102.7958 281° West 432 497 36,100  Level Denver Center
Fri 01:04:26 AM 44.8047 -102.9625 281° West 432 497 36,100 -49 Level Denver Center
Fri 01:05:27 AM 44.8267 -103.1289 281° West 432 497 36,000 -50 Descending Denver Center
Fri 01:06:27 AM 44.8469 -103.2919 280° West 427 491 36,000  Level Denver Center
Fri 01:07:28 AM 44.8661 -103.4572 279° West 425 489 36,000 49 Level Denver Center
Fri 01:08:29 AM 44.8864 -103.6128 280° West 430 495 36,100 49 Climbing Denver Center
Fri 01:09:30 AM 44.9078 -103.7972 279° West 429 494 36,100 -50 Level Denver Center
Fri 01:10:30 AM 44.9275 -103.9550 280° West 429 494 36,000  Descending Denver Center
Fri 01:11:31 AM 44.9458 -104.1164 279° West 435 501 36,100 49 Climbing Denver Center
Fri 01:12:32 AM 44.9672 -104.3006 279° West 428 493 36,100  Level Denver Center
Fri 01:13:32 AM 44.9850 -104.4578 279° West 425 489 36,100 -50 Level Denver Center
Fri 01:14:33 AM 45.0033 -104.6142 279° West 422 486 36,000  Descending Denver Center
Fri 01:15:42 AM 45.0250 -104.8008 279° West 424 488 36,100 50 Climbing Salt Lake Center
Fri 01:16:34 AM 45.0417 -104.9600 278° West 425 489 36,100  Level Denver Center
Fri 01:17:35 AM 45.0581 -105.1172 278° West 424 488 36,100 -49 Level Denver Center
Fri 01:18:36 AM 45.0792 -105.3011 279° West 425 489 36,000  Descending Denver Center
Fri 01:19:36 AM 45.0947 -105.4597 278° West 425 489 36,100 50 Climbing Denver Center
Fri 01:20:37 AM 45.1114 -105.6181 279° West 425 489 36,100  Level Denver Center
Fri 01:21:38 AM 45.1306 -105.8028 278° West 426 490 36,100  Level Denver Center
Fri 01:22:38 AM 45.1464 -105.9606 278° West 424 488 36,100 -50 Level Denver Center
Fri 01:23:39 AM 45.1619 -106.1183 278° West 424 488 36,000 -50 Descending Denver Center
Fri 01:24:39 AM 45.1778 -106.2750 278° West 422 486 36,000 50 Level Denver Center
Fri 01:25:40 AM 45.1953 -106.4597 278° West 424 488 36,100 50 Climbing Denver Center
Fri 01:26:40 AM 45.2100 -106.6158 278° West 419 482 36,100  Level Denver Center
Fri 01:27:52 AM 45.2297 -106.8244 278° West 420 483 36,100  Level Salt Lake Center
Fri 01:28:52 AM 45.2442 -106.9811 278° West 419 482 36,100  Level Salt Lake Center
Fri 01:29:53 AM 45.2592 -107.1353 278° West 415 478 36,100 -49 Level Salt Lake Center
Fri 01:30:54 AM 45.2736 -107.3128 277° West 408 470 36,000 -50 Descending Salt Lake Center
Fri 01:31:54 AM 45.2872 -107.4667 277° West 410 472 36,000  Level Salt Lake Center
Fri 01:32:55 AM 45.3006 -107.6183 277° West 408 470 36,000  Level Salt Lake Center
Fri 01:33:56 AM 45.3147 -107.7972 276° West 410 472 36,000 50 Level Salt Lake Center
Fri 01:34:56 AM 45.3283 -107.9497 277° West 410 472 36,100 50 Climbing Salt Lake Center
Fri 01:35:57 AM 45.3408 -108.1031 277° West 413 475 36,100  Level Salt Lake Center
Fri 01:36:58 AM 45.3547 -108.2814 276° West 410 472 36,100  Level Salt Lake Center
Fri 01:37:58 AM 45.3664 -108.4344 276° West 409 471 36,100  Level Salt Lake Center
Fri 01:38:59 AM 45.3781 -108.5869 276° West 408 470 36,100  Level Salt Lake Center
Fri 01:39:59 AM 45.3908 -108.7650 276° West 407 468 36,100  Level Salt Lake Center
Fri 01:41:00 AM 45.4033 -108.9169 277° West 406 467 36,100 -49 Level Salt Lake Center
Fri 01:42:01 AM 45.4136 -109.0686 276° West 404 465 36,000  Descending Salt Lake Center
Fri 01:43:01 AM 45.4278 -109.2464 277° West 405 466 36,100 50 Climbing Salt Lake Center
Fri 01:44:02 AM 45.4375 -109.3992 275° West 406 467 36,100 -49 Level Salt Lake Center
Fri 01:45:03 AM 45.4481 -109.5508 276° West 405 466 36,000 -50 Descending Salt Lake Center
Fri 01:46:03 AM 45.4603 -109.7275 276° West 405 466 36,000 50 Level Salt Lake Center
Fri 01:47:04 AM 45.4703 -109.8800 275° West 407 468 36,100 50 Climbing Salt Lake Center
Fri 01:48:04 AM 45.4797 -110.0325 275° West 406 467 36,100  Level Salt Lake Center
Fri 01:49:05 AM 45.4908 -110.2108 275° West 405 466 36,100 -49 Level Salt Lake Center
Fri 01:50:06 AM 45.5003 -110.3619 275° West 403 464 36,000  Descending Salt Lake Center
Fri 01:51:06 AM 45.5097 -110.5161 275° West 406 467 36,100 50 Climbing Salt Lake Center
Fri 01:52:07 AM 45.5181 -110.6822 274° West 403 464 36,100  Level Salt Lake Center
Fri 01:53:07 AM 45.5275 -110.8439 275° West 406 467 36,100  Level Salt Lake Center
Fri 01:54:08 AM 45.5356 -111.0042 274° West 402 463 36,100 -50 Level Salt Lake Center
Fri 01:55:08 AM 45.5447 -111.1661 275° West 404 465 36,000 -50 Descending Salt Lake Center
Fri 01:56:09 AM 45.5528 -111.3289 274° West 406 467 36,000 50 Level Salt Lake Center
Fri 01:57:09 AM 45.5617 -111.4889 275° West 403 464 36,100 50 Climbing Salt Lake Center
Fri 01:58:10 AM 45.5703 -111.6478 274° West 401 461 36,100 -50 Level Salt Lake Center
Fri 01:59:10 AM 45.5783 -111.8069 274° West 400 460 36,000  Descending Salt Lake Center
Fri 02:00:11 AM 45.5858 -111.9667 274° West 402 463 36,100 49 Climbing Salt Lake Center
Fri 02:01:12 AM 45.5922 -112.1258 273° West 401 461 36,100 -50 Level Salt Lake Center
Fri 02:02:12 AM 45.5992 -112.2844 274° West 399 459 36,000  Descending Salt Lake Center
Fri 02:03:13 AM 45.6064 -112.4439 274° West 402 463 36,100 50 Climbing Salt Lake Center
Fri 02:04:13 AM 45.6139 -112.6033 274° West 403 464 36,100  Level Salt Lake Center
Fri 02:05:14 AM 45.6186 -112.7606 273° West 397 457 36,100 -50 Level Salt Lake Center
Fri 02:06:14 AM 45.6261 -112.9183 274° West 397 457 36,000  Descending Salt Lake Center
Fri 02:07:15 AM 45.6322 -113.0736 273° West 395 455 36,100  Climbing Salt Lake Center
Fri 02:08:17 AM 45.6367 -113.2300 272° West 394 453 36,000 -49 Descending Salt Lake Center
Fri 02:09:18 AM 45.6433 -113.3853 274° West 391 450 36,000  Level Salt Lake Center
Fri 02:10:18 AM 45.6469 -113.5408 272° West 392 451 36,000 50 Level Salt Lake Center
Fri 02:11:18 AM 45.6542 -113.6889 274° West 394 453 36,100  Climbing Salt Lake Center
Fri 02:12:19 AM 45.6589 -113.8439 273° West 392 451 36,000 -50 Descending Salt Lake Center
Fri 02:13:19 AM 45.6628 -113.9989 272° West 391 450 36,000  Level Salt Lake Center
Fri 02:14:20 AM 45.6678 -114.1547 273° West 392 451 36,000  Level Salt Lake Center
Fri 02:15:20 AM 45.6722 -114.3436 272° West 396 456 36,000 50 Level Salt Lake Center
Fri 02:16:20 AM 45.6756 -114.4969 272° West 391 450 36,100 50 Climbing Salt Lake Center
Fri 02:17:21 AM 45.6794 -114.6456 272° West 392 451 36,100 -50 Level Salt Lake Center
Fri 02:18:21 AM 45.6828 -114.7944 272° West 393 452 36,000 -50 Descending Salt Lake Center
Fri 02:19:22 AM 45.6878 -114.9681 272° West 392 451 36,000 50 Level Salt Lake Center
Fri 02:20:22 AM 45.6897 -115.1164 271° West 392 451 36,100 50 Climbing Salt Lake Center
Fri 02:21:22 AM 45.6925 -115.2653 272° West 392 451 36,100  Level Salt Lake Center
Fri 02:22:23 AM 45.6956 -115.4358 272° West 387 445 36,100 -62 Level Salt Lake Center
Fri 02:22:59 AM 45.6967 -115.5172 271° West 387 445 36,000 -63 Descending Seattle Center
Fri 02:23:59 AM 45.6986 -115.6703 271° West 386 444 36,000 71 Level Seattle Center
Fri 02:24:24 AM 45.6997 -115.7286 272° West 385 443 36,100 71 Climbing Salt Lake Center
Fri 02:25:24 AM 45.7022 -115.9019 271° West 388 447 36,100 -63 Level Salt Lake Center
Fri 02:26:00 AM 45.7017 -115.9794 269° West 388 447 36,000 -63 Descending Seattle Center
Fri 02:27:00 AM 45.7044 -116.1336 272° West 389 448 36,000  Level Seattle Center
Fri 02:28:01 AM 45.7050 -116.2872 270° West 388 447 36,000  Level Seattle Center
Fri 02:29:01 AM 45.7069 -116.4392 271° West 384 442 36,000  Level Seattle Center
Fri 02:30:01 AM 45.7083 -116.5931 271° West 387 445 36,000  Level Seattle Center
Fri 02:31:02 AM 45.7092 -116.7453 271° West 384 442 36,000  Level Seattle Center
Fri 02:32:02 AM 45.7094 -116.8978 270° West 383 441 36,000  Level Seattle Center
Fri 02:33:02 AM 45.7097 -117.0511 270° West 385 443 36,000  Level Seattle Center
Fri 02:34:03 AM 45.7097 -117.2025 270° West 383 441 36,000  Level Seattle Center
Fri 02:35:03 AM 45.7094 -117.3553 270° West 385 443 36,000  Level Seattle Center
Fri 02:36:03 AM 45.7103 -117.5072 271° West 382 440 36,000  Level Seattle Center
Fri 02:37:04 AM 45.7097 -117.6583 270° West 382 440 36,000  Level Seattle Center
Fri 02:39:04 AM 45.7069 -117.9583 269° West 378 435 36,000  Level Seattle Center
Fri 02:40:05 AM 45.7067 -118.1106 270° West 381 438 36,000  Level Seattle Center
Fri 02:41:05 AM 45.7056 -118.2600 269° West 378 435 36,000  Level Seattle Center
Fri 02:42:05 AM 45.7044 -118.4100 269° West 377 434 36,000 50 Level Seattle Center
Fri 02:43:06 AM 45.7025 -118.5700 269° West 379 436 36,100 50 Climbing Seattle Center
Fri 02:44:06 AM 45.7008 -118.7200 269° West 380 437 36,100  Level Seattle Center
Fri 02:45:06 AM 45.6986 -118.8708 269° West 381 438 36,100  Level Seattle Center
Fri 02:46:06 AM 45.6894 -119.0203 265° West 383 441 36,100  Level Seattle Center
Fri 02:47:07 AM 45.6719 -119.1678 260° West 381 438 36,100  Level Seattle Center
Fri 02:48:07 AM 45.6561 -119.3178 261° West 383 441 36,100  Level Seattle Center
Fri 02:49:07 AM 45.6414 -119.4669 262° West 383 441 36,100  Level Seattle Center
Fri 02:50:07 AM 45.6356 -119.6181 267° West 383 441 36,100 -50 Level Seattle Center
Fri 02:51:08 AM 45.6289 -119.7692 266° West 384 442 36,000  Descending Seattle Center
Fri 02:52:08 AM 45.6225 -119.9203 267° West 386 444 36,100 50 Climbing Seattle Center
Fri 02:53:08 AM 45.6150 -120.0714 266° West 385 443 36,100 -600 Level Seattle Center
Fri 02:54:08 AM 45.6072 -120.2217 266° West 386 444 34,900 -2,150 Descending Seattle Center
Fri 02:55:08 AM 45.5994 -120.3747 266° West 387 445 31,800 -3,124 Descending Seattle Center
Fri 02:56:09 AM 45.5922 -120.5317 266° West 397 457 28,600 -2,826 Descending Seattle Center
Fri 02:57:09 AM 45.5839 -120.6889 266° West 400 460 26,100 -2,700 Descending Seattle Center
Fri 02:58:09 AM 45.5731 -120.8722 265° West 392 451 23,200 -2,600 Descending Seattle Center
Fri 02:59:09 AM 45.5658 -121.0208 266° West 380 437 20,900 -2,281 Descending Seattle Center
Fri 03:00:10 AM 45.5569 -121.1664 265° West 372 428 18,600 -2,000 Descending Seattle Center
Fri 03:00:54 AM 45.5525 -121.2700 267° West 368 423 17,400 -1,600 Descending Seattle Center
Fri 03:01:10 AM 45.5500 -121.3053 264° West 356 410 17,000 -2,060 Descending Seattle Center
Fri 03:02:01 AM 45.5444 -121.4253 266° West 335 386 15,100 -2,205 Descending Seattle Center
Fri 03:03:07 AM 45.5350 -121.5656 265° West 329 379 12,700 -2,231 Descending Seattle Center
Fri 03:04:02 AM 45.5272 -121.6833 265° West 326 375 10,600 -1,409 Descending Seattle Center
Fri 03:05:02 AM 45.5219 -121.8031 266° West 296 341 10,000 -1,190 Descending Seattle Center
Fri 03:06:03 AM 45.5208 -121.9117 269° West 275 316 8,200 -1,623 Descending Seattle Center
Fri 03:07:04 AM 45.5181 -122.0242 268° West 284 327 6,700 -1,438 Descending Seattle Center
Fri 03:08:04 AM 45.5161 -122.1300 269° West 268 308 5,300 -744 Descending Seattle Center
Fri 03:09:05 AM 45.5161 -122.2256 270° West 226 260 5,200 -645 Descending Seattle Center
Fri 03:10:05 AM 45.5125 -122.3136 267° West 204 235 4,000 -1,091 Descending Seattle Center
Fri 03:11:06 AM 45.5183 -122.3850 277° West 171 197 3,000 -984 Descending Seattle Center
Fri 03:12:07 AM 45.5353 -122.4461 292° West 161 185 2,000 -893 Descending Seattle Center
Fri 03:13:07 AM 45.5561 -122.4961 301° West 143 165 1,200 -744 Descending Seattle Center
Fri 03:14:08 AM 45.5719 -122.5419 296° West 128 147 500 -524 Descending Seattle Center
Fri 03:15:13 AM 45.5922 -122.5889 302° West 142 163 100 -369 Descending Seattle Center

Login

Don't have an account? Register now (free) for customized features, flight alerts, and more!